createdAt,value
2022-08-20T00:02:10.818Z,27.75
2022-08-20T00:04:39.424Z,26.17
2022-08-20T00:07:11.814Z,27.57
2022-08-20T00:09:39.490Z,26.05
2022-08-20T00:12:07.710Z,26.60
2022-08-20T00:14:35.593Z,25.13
2022-08-20T00:17:03.887Z,25.70
2022-08-20T00:19:31.549Z,24.53
2022-08-20T00:21:59.165Z,26.58
2022-08-20T00:24:28.068Z,24.33
2022-08-20T00:26:55.689Z,23.30
2022-08-20T00:29:23.246Z,23.33
2022-08-20T00:31:51.256Z,25.23
2022-08-20T00:34:19.465Z,24.27
2022-08-20T00:36:47.031Z,22.90
2022-08-20T00:39:14.814Z,25.77
2022-08-20T00:41:43.754Z,24.27
2022-08-20T00:44:12.897Z,21.07
2022-08-20T00:46:40.875Z,20.17
2022-08-20T00:49:09.612Z,20.90
2022-08-20T00:51:41.014Z,21.38
2022-08-20T00:54:10.881Z,22.77
2022-08-20T00:56:39.103Z,23.10
2022-08-20T00:59:11.635Z,24.75
2022-08-20T01:01:54.849Z,24.40
2022-08-20T01:04:24.932Z,22.55
2022-08-20T01:06:52.549Z,21.65
2022-08-20T01:09:49.491Z,24.10
2022-08-20T01:12:08.085Z,25.55
2022-08-20T01:14:43.616Z,26.20
2022-08-20T01:17:13.543Z,23.60
2022-08-20T01:19:44.193Z,25.70
2022-08-20T01:22:28.251Z,23.67
2022-08-20T01:25:02.332Z,25.20
2022-08-20T01:27:32.150Z,20.80
2022-08-20T01:30:06.205Z,19.65
2022-08-20T01:32:34.629Z,17.02
2022-08-20T01:35:02.197Z,19.43
2022-08-20T01:37:31.457Z,19.00
2022-08-20T01:39:59.682Z,19.65
2022-08-20T01:42:29.925Z,16.60
2022-08-20T01:44:58.861Z,17.55
2022-08-20T01:47:31.358Z,19.27
2022-08-20T01:50:09.039Z,18.52
2022-08-20T01:52:40.041Z,17.65
2022-08-20T01:55:08.681Z,20.75
2022-08-20T01:57:36.696Z,20.77
2022-08-20T02:00:07.428Z,21.73
2022-08-20T02:02:38.583Z,22.85
2022-08-20T02:05:06.281Z,24.65
2022-08-20T02:07:33.843Z,23.40
2022-08-20T02:10:02.139Z,27.67
2022-08-20T02:12:29.720Z,26.93
2022-08-20T02:14:57.318Z,29.08
2022-08-20T02:17:28.074Z,31.30
2022-08-20T02:19:58.787Z,29.67
2022-08-20T02:22:28.094Z,30.58
2022-08-20T02:24:57.462Z,30.50
2022-08-20T02:27:25.049Z,30.88
2022-08-20T02:29:53.186Z,31.55
2022-08-20T02:32:24.694Z,33.10
2022-08-20T02:35:03.741Z,32.78
2022-08-20T02:37:31.716Z,34.47
2022-08-20T02:39:59.348Z,32.47
2022-08-20T02:42:27.355Z,33.40
2022-08-20T02:44:55.084Z,30.20
2022-08-20T02:47:22.638Z,36.25
2022-08-20T02:49:50.160Z,31.07
2022-08-20T02:52:19.174Z,31.63
2022-08-20T02:54:46.992Z,30.95
2022-08-20T02:57:14.848Z,30.55
2022-08-20T02:59:43.740Z,31.58
2022-08-20T03:02:12.023Z,46.73
2022-08-20T03:04:39.863Z,33.22
2022-08-20T03:07:07.741Z,33.15
2022-08-20T03:09:36.621Z,35.47
2022-08-20T03:12:04.334Z,35.35
2022-08-20T03:14:31.925Z,37.57
2022-08-20T03:16:59.815Z,38.42
2022-08-20T03:19:27.439Z,37.72
2022-08-20T03:21:55.281Z,37.47
2022-08-20T03:24:22.835Z,31.80
2022-08-20T03:26:51.777Z,35.93
2022-08-20T03:29:19.343Z,31.23
2022-08-20T03:31:46.971Z,31.55
2022-08-20T03:34:14.520Z,31.45
2022-08-20T03:36:42.066Z,30.85
2022-08-20T03:39:13.145Z,27.47
2022-08-20T03:41:40.787Z,29.73
2022-08-20T03:44:10.188Z,28.85
2022-08-20T03:46:38.943Z,29.20
2022-08-20T03:49:06.514Z,28.50
2022-08-20T03:51:57.768Z,30.60
2022-08-20T03:54:22.149Z,28.50
2022-08-20T03:56:49.718Z,30.40
2022-08-20T03:59:18.634Z,26.98
2022-08-20T04:01:46.999Z,26.02
2022-08-20T04:04:14.761Z,30.17
2022-08-20T04:06:42.374Z,28.67
2022-08-20T04:09:11.954Z,30.17
2022-08-20T04:11:39.991Z,27.95
2022-08-20T04:14:07.894Z,28.77
2022-08-20T04:16:39.431Z,26.50
2022-08-20T04:19:07.411Z,26.63
2022-08-20T04:21:35.883Z,29.83
2022-08-20T04:24:04.311Z,28.17
2022-08-20T04:26:31.941Z,31.95
2022-08-20T04:28:59.720Z,29.67
2022-08-20T04:31:32.692Z,27.48
2022-08-20T04:34:02.011Z,27.70
2022-08-20T04:36:29.551Z,29.42
2022-08-20T04:38:57.120Z,26.17
2022-08-20T04:41:24.855Z,26.90
2022-08-20T04:43:53.557Z,27.17
2022-08-20T04:46:21.545Z,27.13
2022-08-20T04:48:50.412Z,26.15
2022-08-20T04:51:22.706Z,28.00
2022-08-20T04:53:53.286Z,25.97
2022-08-20T04:56:23.608Z,28.33
2022-08-20T04:58:52.398Z,26.83
2022-08-20T05:01:19.995Z,24.33
2022-08-20T05:03:48.216Z,27.60
2022-08-20T05:06:17.885Z,24.10
2022-08-20T05:08:46.797Z,24.88
2022-08-20T05:11:33.807Z,23.13
2022-08-20T05:14:02.816Z,21.75
2022-08-20T05:16:31.366Z,21.42
2022-08-20T05:18:58.901Z,20.33
2022-08-20T05:21:26.455Z,19.48
2022-08-20T05:23:55.423Z,17.40
2022-08-20T05:26:26.266Z,18.80
2022-08-20T05:28:58.454Z,18.30
2022-08-20T05:31:32.692Z,16.37
2022-08-20T05:34:00.993Z,15.40
2022-08-20T05:36:28.598Z,17.25
2022-08-20T05:38:57.571Z,15.05
2022-08-20T05:41:28.672Z,13.25
2022-08-20T05:43:57.094Z,14.10
2022-08-20T05:46:24.765Z,13.82
2022-08-20T05:48:52.290Z,13.50
2022-08-20T05:51:19.855Z,13.85
2022-08-20T05:53:47.396Z,13.75
2022-08-20T05:56:16.318Z,12.00
2022-08-20T05:58:43.887Z,14.15
2022-08-20T06:01:11.503Z,11.85
2022-08-20T06:03:56.786Z,12.75
2022-08-20T06:06:44.708Z,10.77
2022-08-20T06:09:11.892Z,12.53
2022-08-20T06:11:40.765Z,10.95
2022-08-20T06:14:08.335Z,11.23
2022-08-20T06:16:37.113Z,10.02
2022-08-20T06:19:05.219Z,10.07
2022-08-20T06:21:32.962Z,10.43
2022-08-20T06:24:01.206Z,11.13
2022-08-20T06:26:30.303Z,10.43
2022-08-20T06:29:00.314Z,9.10
2022-08-20T06:31:28.309Z,8.50
2022-08-20T06:33:56.177Z,9.23
2022-08-20T06:36:24.897Z,8.27
2022-08-20T06:38:54.887Z,8.93
2022-08-20T06:41:22.411Z,6.82
2022-08-20T06:44:04.838Z,6.45
2022-08-20T06:46:33.176Z,6.20
2022-08-20T06:49:00.971Z,6.72
2022-08-20T06:51:29.307Z,7.43
2022-08-20T06:53:56.965Z,6.32
2022-08-20T06:56:24.743Z,7.00
2022-08-20T06:58:52.284Z,6.83
2022-08-20T07:01:21.404Z,5.93
2022-08-20T07:03:55.679Z,6.97
2022-08-20T07:06:24.994Z,6.25
2022-08-20T07:08:52.645Z,6.95
2022-08-20T07:11:26.580Z,6.97
2022-08-20T07:13:56.531Z,7.00
2022-08-20T07:16:25.528Z,8.45
2022-08-20T07:18:53.291Z,7.25
2022-08-20T07:21:20.821Z,7.03
2022-08-20T07:23:49.509Z,6.60
2022-08-20T07:26:17.101Z,7.43
2022-08-20T07:28:44.760Z,8.02
2022-08-20T07:31:31.324Z,8.93
2022-08-20T07:34:00.506Z,6.30
2022-08-20T07:36:28.242Z,7.35
2022-08-20T07:38:56.879Z,7.43
2022-08-20T07:41:24.852Z,7.72
2022-08-20T07:43:52.426Z,6.80
2022-08-20T07:46:21.395Z,7.10
2022-08-20T07:48:50.329Z,6.20
2022-08-20T07:51:20.572Z,12.30
2022-08-20T07:53:48.778Z,6.72
2022-08-20T07:56:18.754Z,6.05
2022-08-20T07:58:50.004Z,6.00
2022-08-20T08:01:18.295Z,7.45
2022-08-20T08:03:49.745Z,6.53
2022-08-20T08:06:29.775Z,8.77
2022-08-20T08:08:59.341Z,6.53
2022-08-20T08:11:26.961Z,9.05
2022-08-20T08:13:54.681Z,5.32
2022-08-20T08:16:22.284Z,6.00
2022-08-20T08:18:51.465Z,6.07
2022-08-20T08:21:20.983Z,6.68
2022-08-20T08:23:48.543Z,7.03
2022-08-20T08:26:19.072Z,7.43
2022-08-20T08:28:47.296Z,7.20
2022-08-20T08:31:15.288Z,5.60
2022-08-20T08:33:42.864Z,6.50
2022-08-20T08:36:11.498Z,6.03
2022-08-20T08:38:41.233Z,6.10
2022-08-20T08:41:12.373Z,6.33
2022-08-20T08:43:39.935Z,6.82
2022-08-20T08:46:10.209Z,5.25
2022-08-20T08:48:38.726Z,5.95
2022-08-20T08:51:12.632Z,5.70
2022-08-20T08:53:43.262Z,7.13
2022-08-20T08:56:11.512Z,5.63
2022-08-20T08:58:39.357Z,5.80
2022-08-20T09:01:13.845Z,5.88
2022-08-20T09:03:57.922Z,6.25
2022-08-20T09:06:28.209Z,6.57
2022-08-20T09:09:00.984Z,6.57
2022-08-20T09:11:28.743Z,5.72
2022-08-20T09:13:56.295Z,4.38
2022-08-20T09:16:24.841Z,5.47
2022-08-20T09:18:55.513Z,5.23
2022-08-20T09:21:23.089Z,5.85
2022-08-20T09:23:50.618Z,5.63
2022-08-20T09:26:19.630Z,4.75
2022-08-20T09:28:52.071Z,4.85
2022-08-20T09:31:20.027Z,6.03
2022-08-20T09:33:50.738Z,6.00
2022-08-20T09:36:28.795Z,5.80
2022-08-20T09:39:00.435Z,5.93
2022-08-20T09:41:29.366Z,5.55
2022-08-20T09:43:56.920Z,5.82
2022-08-20T09:46:27.308Z,4.55
2022-08-20T09:48:55.204Z,6.15
2022-08-20T09:51:22.923Z,5.22
2022-08-20T09:53:50.494Z,5.75
2022-08-20T09:56:18.364Z,5.07
2022-08-20T09:58:49.007Z,6.25
2022-08-20T10:01:18.221Z,5.65
2022-08-20T10:03:48.044Z,5.82
2022-08-20T10:06:16.714Z,6.47
2022-08-20T10:08:44.285Z,6.82
2022-08-20T10:11:12.144Z,5.38
2022-08-20T10:13:39.705Z,7.10
2022-08-20T10:16:08.764Z,6.63
2022-08-20T10:18:36.458Z,5.68
2022-08-20T10:21:04.048Z,6.03
2022-08-20T10:23:31.602Z,5.75
2022-08-20T10:25:59.148Z,6.95
2022-08-20T10:28:26.669Z,5.80
2022-08-20T10:30:54.242Z,6.25
2022-08-20T10:33:23.135Z,6.97
2022-08-20T10:35:50.660Z,7.60
2022-08-20T10:38:22.350Z,7.53
2022-08-20T10:40:52.382Z,7.53
2022-08-20T10:43:20.333Z,4.85
2022-08-20T10:45:47.880Z,5.70
2022-08-20T10:48:20.828Z,5.97
2022-08-20T10:50:50.653Z,6.18
2022-08-20T10:53:18.275Z,6.68
2022-08-20T10:55:46.246Z,6.25
2022-08-20T10:58:14.074Z,5.00
2022-08-20T11:00:42.164Z,6.65
2022-08-20T11:03:09.718Z,7.20
2022-08-20T11:05:37.308Z,7.37
2022-08-20T11:08:06.387Z,6.13
2022-08-20T11:10:35.218Z,6.38
2022-08-20T11:13:03.039Z,6.13
2022-08-20T11:15:30.817Z,6.40
2022-08-20T11:17:58.591Z,6.00
2022-08-20T11:20:27.087Z,6.80
2022-08-20T11:22:55.147Z,5.85
2022-08-20T11:25:24.073Z,5.50
2022-08-20T11:27:52.628Z,5.87
2022-08-20T11:30:21.039Z,7.07
2022-08-20T11:32:48.652Z,6.57
2022-08-20T11:38:03.797Z,6.70
2022-08-20T11:40:32.952Z,6.35
2022-08-20T11:43:16.970Z,6.28
2022-08-20T11:45:45.780Z,6.07
2022-08-20T11:48:13.373Z,5.25
2022-08-20T11:50:41.316Z,4.93
2022-08-20T11:53:08.949Z,6.97
2022-08-20T11:55:38.702Z,5.53
2022-08-20T11:58:06.570Z,5.43
2022-08-20T12:00:34.535Z,7.15
2022-08-20T12:03:02.531Z,6.00
2022-08-20T12:05:30.451Z,5.03
2022-08-20T12:07:58.076Z,6.63
2022-08-20T12:10:26.863Z,6.60
2022-08-20T12:12:56.111Z,5.00
2022-08-20T12:15:25.295Z,5.25
2022-08-20T12:17:52.925Z,5.97
2022-08-20T12:20:20.547Z,5.53
2022-08-20T12:22:48.145Z,5.40
2022-08-20T12:25:16.197Z,6.97
2022-08-20T12:27:43.808Z,6.97
2022-08-20T12:30:14.805Z,5.72
2022-08-20T12:32:42.885Z,7.43
2022-08-20T12:35:11.237Z,6.75
2022-08-20T12:37:38.956Z,6.43
2022-08-20T12:40:08.585Z,5.97
2022-08-20T12:42:36.474Z,5.50
2022-08-20T12:45:04.201Z,4.97
2022-08-20T12:47:33.913Z,6.05
2022-08-20T12:50:02.614Z,6.07
2022-08-20T12:52:33.021Z,5.28
2022-08-20T12:55:01.085Z,5.90
2022-08-20T12:57:30.082Z,6.57
2022-08-20T12:59:58.999Z,6.67
2022-08-20T13:02:26.812Z,7.00
2022-08-20T13:04:55.758Z,6.57
2022-08-20T13:07:26.165Z,6.13
2022-08-20T13:09:55.430Z,6.78
2022-08-20T13:12:22.982Z,5.27
2022-08-20T13:14:50.578Z,6.10
2022-08-20T13:17:18.736Z,5.88
2022-08-20T13:19:46.936Z,5.47
2022-08-20T13:22:16.328Z,5.57
2022-08-20T13:24:43.938Z,6.30
2022-08-20T13:27:12.725Z,5.77
2022-08-20T13:29:40.315Z,5.47
2022-08-20T13:32:08.650Z,6.03
2022-08-20T13:34:36.217Z,6.68
2022-08-20T13:37:03.830Z,6.63
2022-08-20T13:39:32.779Z,4.60
2022-08-20T13:42:00.351Z,4.50
2022-08-20T13:44:32.752Z,5.43
2022-08-20T13:47:01.228Z,5.65
2022-08-20T13:49:28.803Z,5.63
2022-08-20T13:52:01.651Z,5.87
2022-08-20T13:54:30.353Z,4.97
2022-08-20T13:57:05.913Z,4.63
2022-08-20T13:59:35.658Z,7.25
2022-08-20T14:02:07.155Z,4.75
2022-08-20T14:04:35.042Z,5.00
2022-08-20T14:07:09.579Z,4.93
2022-08-20T14:09:38.247Z,6.15
2022-08-20T14:12:07.243Z,6.70
2022-08-20T14:14:35.047Z,4.75
2022-08-20T14:17:12.949Z,5.07
2022-08-20T14:19:42.688Z,5.28
2022-08-20T14:22:10.276Z,4.68
2022-08-20T14:24:37.866Z,6.10
2022-08-20T14:27:05.673Z,5.63
2022-08-20T14:29:36.713Z,5.00
2022-08-20T14:32:04.811Z,6.55
2022-08-20T14:34:42.242Z,5.33
2022-08-20T14:37:16.729Z,4.85
2022-08-20T14:39:45.055Z,4.75
2022-08-20T14:42:12.933Z,4.93
2022-08-20T14:44:40.690Z,6.90
2022-08-20T14:47:15.898Z,4.83
2022-08-20T14:49:45.688Z,6.25
2022-08-20T14:52:13.760Z,5.30
2022-08-20T14:54:41.868Z,4.78
2022-08-20T14:57:13.381Z,5.07
2022-08-20T14:59:41.090Z,4.90
2022-08-20T15:02:09.409Z,5.22
2022-08-20T15:04:37.057Z,5.63
2022-08-20T15:07:08.155Z,6.40
2022-08-20T15:09:38.746Z,5.90
2022-08-20T15:12:06.517Z,4.40
2022-08-20T15:14:34.132Z,4.70
2022-08-20T15:17:07.021Z,6.13
2022-08-20T15:19:36.176Z,6.85
2022-08-20T15:22:03.757Z,4.93
2022-08-20T15:24:32.669Z,5.57
2022-08-20T15:27:00.249Z,5.78
2022-08-20T15:29:27.874Z,4.93
2022-08-20T15:31:55.416Z,6.70
2022-08-20T15:34:22.971Z,6.35
2022-08-20T15:36:50.505Z,6.53
2022-08-20T15:39:18.075Z,7.03
2022-08-20T15:41:47.056Z,5.32
2022-08-20T15:44:14.623Z,7.47
2022-08-20T15:46:42.225Z,5.38
2022-08-20T15:49:12.297Z,5.00
2022-08-20T15:51:44.333Z,4.80
2022-08-20T15:54:14.854Z,4.88
2022-08-20T15:56:51.228Z,6.20
2022-08-20T15:59:26.502Z,7.22
2022-08-20T16:01:59.278Z,5.40
2022-08-20T16:04:53.530Z,5.28
2022-08-20T16:07:23.601Z,6.28
2022-08-20T16:09:57.529Z,5.30
2022-08-20T16:12:30.639Z,6.07
2022-08-20T16:15:00.617Z,5.23
2022-08-20T16:17:31.686Z,5.30
2022-08-20T16:20:03.349Z,6.65
2022-08-20T16:22:31.667Z,5.07
2022-08-20T16:24:59.233Z,4.45
2022-08-20T16:27:34.915Z,4.30
2022-08-20T16:30:04.032Z,5.55
2022-08-20T16:32:34.040Z,4.30
2022-08-20T16:35:04.794Z,4.85
2022-08-20T16:37:36.885Z,5.32
2022-08-20T16:40:10.932Z,4.43
2022-08-20T16:42:41.592Z,6.68
2022-08-20T16:45:12.885Z,5.15
2022-08-20T16:47:41.191Z,5.05
2022-08-20T16:50:11.745Z,4.88
2022-08-20T16:52:42.513Z,5.00
2022-08-20T16:55:10.109Z,4.80
2022-08-20T16:57:37.759Z,5.95
2022-08-20T17:00:13.560Z,5.97
2022-08-20T17:02:59.083Z,6.75
2022-08-20T17:05:28.466Z,4.33
2022-08-20T17:08:00.278Z,6.40
2022-08-20T17:10:28.785Z,5.00
2022-08-20T17:12:59.474Z,5.70
2022-08-20T17:15:30.281Z,4.63
2022-08-20T17:17:57.924Z,6.83
2022-08-20T17:20:29.098Z,5.68
2022-08-20T17:23:09.492Z,5.30
2022-08-20T17:25:38.477Z,5.93
2022-08-20T17:28:13.996Z,4.78
2022-08-20T17:30:43.254Z,4.53
2022-08-20T17:33:20.434Z,4.60
2022-08-20T17:35:52.031Z,5.47
2022-08-20T17:38:25.838Z,5.90
2022-08-20T17:40:59.269Z,5.82
2022-08-20T17:43:28.162Z,5.30
2022-08-20T17:45:58.713Z,5.57
2022-08-20T17:48:36.400Z,4.03
2022-08-20T17:51:07.893Z,6.78
2022-08-20T17:53:38.338Z,5.63
2022-08-20T17:56:17.318Z,5.03
2022-08-20T17:58:54.668Z,5.70
2022-08-20T18:01:25.939Z,6.47
2022-08-20T18:03:54.066Z,5.38
2022-08-20T18:06:30.674Z,4.50
2022-08-20T18:09:02.856Z,4.77
2022-08-20T18:11:33.921Z,6.40
2022-08-20T18:14:11.293Z,5.82
2022-08-20T18:16:45.428Z,4.25
2022-08-20T18:19:16.070Z,6.25
2022-08-20T18:21:51.166Z,6.10
2022-08-20T18:24:21.790Z,8.38
2022-08-20T18:26:51.778Z,6.97
2022-08-20T18:29:21.196Z,6.30
2022-08-20T18:31:54.223Z,5.07
2022-08-20T18:34:22.516Z,7.10
2022-08-20T18:36:57.069Z,6.82
2022-08-20T18:39:27.571Z,6.13
2022-08-20T18:41:59.433Z,6.25
2022-08-20T18:44:35.634Z,8.43
2022-08-20T18:47:06.900Z,7.33
2022-08-20T18:49:35.781Z,5.07
2022-08-20T18:52:10.634Z,5.25
2022-08-20T18:54:38.871Z,6.82
2022-08-20T18:57:07.525Z,6.63
2022-08-20T18:59:39.724Z,6.30
2022-08-20T19:02:17.448Z,5.25
2022-08-20T19:04:47.987Z,5.72
2022-08-20T19:07:20.049Z,4.82
2022-08-20T19:10:04.391Z,5.32
2022-08-20T19:12:42.372Z,6.27
2022-08-20T19:15:13.036Z,8.25
2022-08-20T19:17:49.906Z,5.60
2022-08-20T19:20:20.335Z,7.85
2022-08-20T19:22:48.367Z,6.43
2022-08-20T19:25:23.931Z,6.17
2022-08-20T19:27:51.763Z,7.80
2022-08-20T19:30:29.078Z,7.00
2022-08-20T19:32:58.148Z,6.47
2022-08-20T19:35:25.835Z,7.15
2022-08-20T19:37:53.475Z,8.67
2022-08-20T19:40:22.780Z,8.10
2022-08-20T19:42:52.357Z,5.95
2022-08-20T19:45:24.968Z,7.22
2022-08-20T19:47:55.427Z,6.45
2022-08-20T19:50:29.747Z,7.07
2022-08-20T19:53:00.274Z,6.63
2022-08-20T19:55:30.223Z,5.80
2022-08-20T19:57:58.605Z,7.15
2022-08-20T20:00:26.990Z,7.90
2022-08-20T20:02:54.605Z,8.60
2022-08-20T20:05:22.669Z,7.38
2022-08-20T20:07:53.387Z,6.65
2022-08-20T20:10:24.579Z,7.07
2022-08-20T20:12:52.152Z,7.93
2022-08-20T20:15:19.795Z,8.33
2022-08-20T20:17:47.479Z,13.07
2022-08-20T20:20:21.509Z,8.05
2022-08-20T20:22:50.255Z,7.82
2022-08-20T20:25:21.346Z,6.55
2022-08-20T20:27:49.199Z,8.87
2022-08-20T20:30:21.577Z,7.97
2022-08-20T20:32:50.448Z,10.68
2022-08-20T20:35:24.386Z,7.72
2022-08-20T20:37:58.654Z,8.30
2022-08-20T20:40:28.701Z,6.83
2022-08-20T20:43:02.314Z,8.32
2022-08-20T20:45:32.982Z,6.90
2022-08-20T20:48:00.538Z,6.43
2022-08-20T20:50:30.001Z,7.53
2022-08-20T20:52:59.094Z,10.20
2022-08-20T20:55:30.022Z,7.15
2022-08-20T20:57:57.966Z,10.10
2022-08-20T21:00:27.274Z,6.47
2022-08-20T21:02:55.230Z,8.98
2022-08-20T21:05:25.031Z,9.33
2022-08-20T21:07:54.386Z,8.30
2022-08-20T21:10:22.792Z,6.68
2022-08-20T21:12:53.178Z,7.65
2022-08-20T21:15:21.646Z,6.82
2022-08-20T21:17:49.645Z,9.00
2022-08-20T21:20:17.277Z,6.38
2022-08-20T21:22:44.914Z,8.23
2022-08-20T21:25:12.460Z,7.60
2022-08-20T21:27:41.173Z,7.85
2022-08-20T21:30:10.646Z,8.07
2022-08-20T21:32:38.242Z,8.00
2022-08-20T21:35:06.132Z,8.77
2022-08-20T21:37:33.810Z,10.70
2022-08-20T21:40:01.464Z,9.20
2022-08-20T21:42:29.854Z,9.90
2022-08-20T21:44:57.505Z,9.15
2022-08-20T21:47:26.496Z,6.65
2022-08-20T21:49:54.117Z,7.45
2022-08-20T21:52:21.687Z,8.32
2022-08-20T21:54:49.256Z,9.30
2022-08-20T21:57:19.835Z,7.75
2022-08-20T21:59:47.397Z,7.82
2022-08-20T22:02:15.490Z,9.18
2022-08-20T22:04:44.579Z,9.73
2022-08-20T22:07:12.206Z,7.87
2022-08-20T22:09:39.847Z,9.93
2022-08-20T22:12:08.514Z,9.20
2022-08-20T22:14:36.092Z,7.72
2022-08-20T22:17:03.707Z,7.35
2022-08-20T22:19:31.262Z,6.87
2022-08-20T22:22:00.198Z,9.07
2022-08-20T22:24:29.451Z,8.38
2022-08-20T22:26:57.338Z,8.00
2022-08-20T22:29:24.913Z,9.38
2022-08-20T22:31:52.606Z,7.83
2022-08-20T22:34:20.808Z,9.50
2022-08-20T22:36:48.949Z,9.52
2022-08-20T22:39:17.837Z,10.23
2022-08-20T22:41:45.452Z,9.35
2022-08-20T22:44:12.983Z,10.97
2022-08-20T22:46:46.423Z,9.55
2022-08-20T22:49:17.632Z,12.85
2022-08-20T22:51:45.380Z,10.45
2022-08-20T22:54:16.626Z,10.65
2022-08-20T22:56:45.515Z,10.57
2022-08-20T22:59:13.487Z,11.05
2022-08-20T23:01:44.537Z,8.25
2022-08-20T23:04:14.302Z,10.23
2022-08-20T23:06:42.159Z,10.75
2022-08-20T23:09:13.091Z,11.10
2022-08-20T23:11:40.785Z,10.13
2022-08-20T23:14:09.701Z,8.27
2022-08-20T23:16:37.838Z,9.65
2022-08-20T23:19:05.527Z,12.48
2022-08-20T23:21:33.111Z,11.63
2022-08-20T23:24:00.636Z,13.50
2022-08-20T23:26:28.331Z,9.73
2022-08-20T23:28:55.849Z,9.85
2022-08-20T23:31:24.781Z,9.52
2022-08-20T23:33:52.296Z,10.90
2022-08-20T23:36:20.461Z,9.70
2022-08-20T23:38:48.046Z,13.27
2022-08-20T23:41:15.744Z,10.82
2022-08-20T23:43:44.080Z,10.10
2022-08-20T23:46:11.951Z,13.13
2022-08-20T23:48:40.894Z,12.55
2022-08-20T23:51:08.474Z,10.23
2022-08-20T23:53:36.548Z,12.18
2022-08-20T23:56:04.347Z,10.90
2022-08-20T23:58:31.927Z,11.73
